KLAW/LAW METAR and TAF weather

Enter ICAO airport designator
Station Type Date Time Source
KLAW METAR 2020/09/20 09:53 UTC NOAA

KLAW 200953Z AUTO 00000KT 8SM CLR 12/11 A3017 RMK AO2 SLP209 T01170106


Station Type Date Time Source
KLAW Decoded METAR 2020/09/20 09:53 UTC NOAA

LAWTON - FORT SILL REGIONAL, OK, United States (KLAW) 34-34N 98-25W 337M
Sep 20, 2020 - 05:53 AM EDT / 2020.09.20 0953 UTC
Wind: Calm:0
Visibility: 8 mile(s):0
Sky conditions: clear
Temperature: 53.1 F (11.7 C)
Dew Point: 51.1 F (10.6 C)
Relative Humidity: 92%
Pressure (altimeter): 30.17 in. Hg (1021 hPa)
ob: KLAW 200953Z AUTO 00000KT 8SM CLR 12/11 A3017 RMK AO2 SLP209 T01170106
cycle: 10

Station Type Date Time Source
KLAW TAF 2020/09/20 08:54 UTC NOAA

TAF
AMD KLAW 200752Z 2008/2106 11006KT 6SM BR SKC
TEMPO 2008/2012 1SM BR

Example: see airport list